sensor_id;sensor_type;location;lat;lon;timestamp;temperature;humidity
5419;DHT22;2732;52.092;11.556;2024-02-15T00:02:00;9.40;99.90
5419;DHT22;2732;52.092;11.556;2024-02-15T00:07:01;9.40;99.90
5419;DHT22;2732;52.092;11.556;2024-02-15T00:12:02;9.40;99.90
5419;DHT22;2732;52.092;11.556;2024-02-15T00:17:03;9.40;99.90
5419;DHT22;2732;52.092;11.556;2024-02-15T00:22:04;9.40;99.90
5419;DHT22;2732;52.092;11.556;2024-02-15T00:27:05;9.40;99.90
5419;DHT22;2732;52.092;11.556;2024-02-15T00:32:06;9.40;99.90
5419;DHT22;2732;52.092;11.556;2024-02-15T00:37:07;9.40;99.90
5419;DHT22;2732;52.092;11.556;2024-02-15T00:42:08;9.40;99.90
5419;DHT22;2732;52.092;11.556;2024-02-15T00:47:12;9.40;99.90
5419;DHT22;2732;52.092;11.556;2024-02-15T00:52:13;9.40;99.90
5419;DHT22;2732;52.092;11.556;2024-02-15T00:57:13;9.40;99.90
5419;DHT22;2732;52.092;11.556;2024-02-15T01:02:14;9.40;99.90
5419;DHT22;2732;52.092;11.556;2024-02-15T01:07:15;9.40;99.90
5419;DHT22;2732;52.092;11.556;2024-02-15T01:12:16;9.40;99.90
5419;DHT22;2732;52.092;11.556;2024-02-15T01:17:16;9.40;99.90
5419;DHT22;2732;52.092;11.556;2024-02-15T01:22:17;9.40;99.90
5419;DHT22;2732;52.092;11.556;2024-02-15T01:27:18;9.40;99.90
5419;DHT22;2732;52.092;11.556;2024-02-15T01:32:18;9.40;99.90
5419;DHT22;2732;52.092;11.556;2024-02-15T01:37:20;9.40;99.90
5419;DHT22;2732;52.092;11.556;2024-02-15T01:42:21;9.40;99.90
5419;DHT22;2732;52.092;11.556;2024-02-15T01:47:22;9.40;99.90
5419;DHT22;2732;52.092;11.556;2024-02-15T01:52:23;9.40;99.90
5419;DHT22;2732;52.092;11.556;2024-02-15T01:57:24;9.40;99.90
5419;DHT22;2732;52.092;11.556;2024-02-15T02:02:25;9.40;99.90
5419;DHT22;2732;52.092;11.556;2024-02-15T02:07:29;9.40;99.90
5419;DHT22;2732;52.092;11.556;2024-02-15T02:12:30;9.40;99.90
5419;DHT22;2732;52.092;11.556;2024-02-15T02:17:31;9.40;99.90
5419;DHT22;2732;52.092;11.556;2024-02-15T02:22:32;9.40;99.90
5419;DHT22;2732;52.092;11.556;2024-02-15T02:27:33;9.40;99.90
5419;DHT22;2732;52.092;11.556;2024-02-15T02:32:34;9.40;99.90
5419;DHT22;2732;52.092;11.556;2024-02-15T02:37:36;9.40;99.90
5419;DHT22;2732;52.092;11.556;2024-02-15T02:47:56;9.30;99.90
5419;DHT22;2732;52.092;11.556;2024-02-15T02:52:56;9.30;99.90
5419;DHT22;2732;52.092;11.556;2024-02-15T02:57:57;9.30;99.90
5419;DHT22;2732;52.092;11.556;2024-02-15T03:02:58;9.30;99.90
5419;DHT22;2732;52.092;11.556;2024-02-15T03:07:58;9.30;99.90
5419;DHT22;2732;52.092;11.556;2024-02-15T03:12:59;9.30;99.90
5419;DHT22;2732;52.092;11.556;2024-02-15T03:17:59;9.30;99.90
5419;DHT22;2732;52.092;11.556;2024-02-15T03:23:01;9.30;99.90
5419;DHT22;2732;52.092;11.556;2024-02-15T03:28:02;9.20;99.90
5419;DHT22;2732;52.092;11.556;2024-02-15T03:33:03;9.20;99.90
5419;DHT22;2732;52.092;11.556;2024-02-15T03:38:05;9.20;99.90
5419;DHT22;2732;52.092;11.556;2024-02-15T03:43:08;9.20;99.90
5419;DHT22;2732;52.092;11.556;2024-02-15T03:48:09;9.20;99.90
5419;DHT22;2732;52.092;11.556;2024-02-15T03:53:10;9.20;99.90
5419;DHT22;2732;52.092;11.556;2024-02-15T03:58:14;9.20;99.90
5419;DHT22;2732;52.092;11.556;2024-02-15T04:03:15;9.20;99.90
5419;DHT22;2732;52.092;11.556;2024-02-15T04:08:16;9.20;99.90
5419;DHT22;2732;52.092;11.556;2024-02-15T04:13:17;9.20;99.90
5419;DHT22;2732;52.092;11.556;2024-02-15T04:18:18;9.20;99.90
5419;DHT22;2732;52.092;11.556;2024-02-15T04:23:19;9.20;99.90
5419;DHT22;2732;52.092;11.556;2024-02-15T04:28:22;9.20;99.90
5419;DHT22;2732;52.092;11.556;2024-02-15T04:33:22;9.20;99.90
5419;DHT22;2732;52.092;11.556;2024-02-15T04:38:23;9.20;99.90
5419;DHT22;2732;52.092;11.556;2024-02-15T04:43:25;9.20;99.90
5419;DHT22;2732;52.092;11.556;2024-02-15T04:48:25;9.20;99.90
5419;DHT22;2732;52.092;11.556;2024-02-15T04:53:26;9.20;99.90
5419;DHT22;2732;52.092;11.556;2024-02-15T04:58:27;9.20;99.90
5419;DHT22;2732;52.092;11.556;2024-02-15T05:03:29;9.20;99.90
5419;DHT22;2732;52.092;11.556;2024-02-15T05:08:29;9.20;99.90
5419;DHT22;2732;52.092;11.556;2024-02-15T05:13:32;9.20;99.90
5419;DHT22;2732;52.092;11.556;2024-02-15T05:18:33;9.20;99.90
5419;DHT22;2732;52.092;11.556;2024-02-15T05:23:37;9.20;99.90
5419;DHT22;2732;52.092;11.556;2024-02-15T05:28:40;9.20;99.90
5419;DHT22;2732;52.092;11.556;2024-02-15T05:33:40;9.10;99.90
5419;DHT22;2732;52.092;11.556;2024-02-15T05:38:44;9.10;99.90
5419;DHT22;2732;52.092;11.556;2024-02-15T05:43:45;9.10;99.90
5419;DHT22;2732;52.092;11.556;2024-02-15T05:48:47;9.10;99.90
5419;DHT22;2732;52.092;11.556;2024-02-15T05:53:47;9.10;99.90
5419;DHT22;2732;52.092;11.556;2024-02-15T05:58:49;9.10;99.90
5419;DHT22;2732;52.092;11.556;2024-02-15T06:03:50;9.00;99.90
5419;DHT22;2732;52.092;11.556;2024-02-15T06:08:55;9.00;99.90
5419;DHT22;2732;52.092;11.556;2024-02-15T06:13:59;9.00;99.90
5419;DHT22;2732;52.092;11.556;2024-02-15T06:19:00;9.00;99.90
5419;DHT22;2732;52.092;11.556;2024-02-15T06:24:01;9.10;99.90
5419;DHT22;2732;52.092;11.556;2024-02-15T06:29:01;9.10;99.90
5419;DHT22;2732;52.092;11.556;2024-02-15T06:34:20;9.10;99.90
5419;DHT22;2732;52.092;11.556;2024-02-15T06:39:39;9.10;99.90
5419;DHT22;2732;52.092;11.556;2024-02-15T06:44:43;9.20;99.90
5419;DHT22;2732;52.092;11.556;2024-02-15T06:49:45;9.20;99.90
5419;DHT22;2732;52.092;11.556;2024-02-15T06:54:46;9.30;99.90
5419;DHT22;2732;52.092;11.556;2024-02-15T06:59:47;9.30;99.90
5419;DHT22;2732;52.092;11.556;2024-02-15T07:04:47;9.40;99.90
5419;DHT22;2732;52.092;11.556;2024-02-15T07:09:50;9.50;99.90
5419;DHT22;2732;52.092;11.556;2024-02-15T07:14:51;9.50;99.90
5419;DHT22;2732;52.092;11.556;2024-02-15T07:19:51;9.60;99.90
5419;DHT22;2732;52.092;11.556;2024-02-15T07:24:52;9.60;99.90
5419;DHT22;2732;52.092;11.556;2024-02-15T07:29:52;9.60;99.90
5419;DHT22;2732;52.092;11.556;2024-02-15T07:34:53;9.70;99.90
5419;DHT22;2732;52.092;11.556;2024-02-15T07:39:53;9.80;99.90
5419;DHT22;2732;52.092;11.556;2024-02-15T07:44:54;9.80;99.90
5419;DHT22;2732;52.092;11.556;2024-02-15T07:49:55;9.80;99.90
5419;DHT22;2732;52.092;11.556;2024-02-15T07:54:55;9.90;99.90
5419;DHT22;2732;52.092;11.556;2024-02-15T07:59:56;9.90;99.90
5419;DHT22;2732;52.092;11.556;2024-02-15T08:04:58;10.00;99.90
5419;DHT22;2732;52.092;11.556;2024-02-15T08:09:58;10.00;99.90
5419;DHT22;2732;52.092;11.556;2024-02-15T08:15:00;10.20;99.90
5419;DHT22;2732;52.092;11.556;2024-02-15T08:20:00;10.40;99.90
5419;DHT22;2732;52.092;11.556;2024-02-15T08:25:01;10.50;99.90
5419;DHT22;2732;52.092;11.556;2024-02-15T08:30:02;10.60;99.90
5419;DHT22;2732;52.092;11.556;2024-02-15T08:35:04;10.80;99.90
5419;DHT22;2732;52.092;11.556;2024-02-15T08:40:08;10.90;99.90
5419;DHT22;2732;52.092;11.556;2024-02-15T08:45:15;11.10;99.90
5419;DHT22;2732;52.092;11.556;2024-02-15T08:50:16;11.30;99.90
5419;DHT22;2732;52.092;11.556;2024-02-15T08:55:17;11.40;99.90
5419;DHT22;2732;52.092;11.556;2024-02-15T09:00:21;11.50;99.90
5419;DHT22;2732;52.092;11.556;2024-02-15T09:05:21;11.70;99.90
5419;DHT22;2732;52.092;11.556;2024-02-15T09:10:22;11.80;99.90
5419;DHT22;2732;52.092;11.556;2024-02-15T09:15:23;11.90;99.90
5419;DHT22;2732;52.092;11.556;2024-02-15T09:20:24;11.90;99.90
5419;DHT22;2732;52.092;11.556;2024-02-15T09:25:28;11.80;99.90
5419;DHT22;2732;52.092;11.556;2024-02-15T09:30:29;11.80;99.90
5419;DHT22;2732;52.092;11.556;2024-02-15T09:35:32;11.90;99.90
5419;DHT22;2732;52.092;11.556;2024-02-15T09:40:32;11.90;99.90
5419;DHT22;2732;52.092;11.556;2024-02-15T09:45:34;11.90;99.90
5419;DHT22;2732;52.092;11.556;2024-02-15T09:50:39;11.90;99.90
5419;DHT22;2732;52.092;11.556;2024-02-15T09:55:43;12.00;99.90
5419;DHT22;2732;52.092;11.556;2024-02-15T10:00:43;12.00;99.90
5419;DHT22;2732;52.092;11.556;2024-02-15T10:05:48;12.00;99.90
5419;DHT22;2732;52.092;11.556;2024-02-15T10:11:05;12.00;99.90
5419;DHT22;2732;52.092;11.556;2024-02-15T10:16:19;12.00;99.90
5419;DHT22;2732;52.092;11.556;2024-02-15T10:21:27;12.20;99.90
5419;DHT22;2732;52.092;11.556;2024-02-15T10:26:34;12.40;99.90
5419;DHT22;2732;52.092;11.556;2024-02-15T10:31:36;12.70;99.90
5419;DHT22;2732;52.092;11.556;2024-02-15T10:36:37;12.90;99.90
5419;DHT22;2732;52.092;11.556;2024-02-15T10:41:39;13.20;99.90
5419;DHT22;2732;52.092;11.556;2024-02-15T10:46:40;13.30;99.90
5419;DHT22;2732;52.092;11.556;2024-02-15T10:51:44;13.50;99.90
5419;DHT22;2732;52.092;11.556;2024-02-15T10:56:48;13.60;99.90
5419;DHT22;2732;52.092;11.556;2024-02-15T11:01:54;13.70;99.90
5419;DHT22;2732;52.092;11.556;2024-02-15T11:06:59;13.90;99.90
5419;DHT22;2732;52.092;11.556;2024-02-15T11:12:02;14.00;99.90
5419;DHT22;2732;52.092;11.556;2024-02-15T11:17:03;14.20;99.90
5419;DHT22;2732;52.092;11.556;2024-02-15T11:22:11;14.40;99.90
5419;DHT22;2732;52.092;11.556;2024-02-15T11:27:28;14.70;99.90
5419;DHT22;2732;52.092;11.556;2024-02-15T11:32:43;14.90;99.90
5419;DHT22;2732;52.092;11.556;2024-02-15T11:42:52;15.30;99.90
5419;DHT22;2732;52.092;11.556;2024-02-15T11:47:54;15.40;99.90
5419;DHT22;2732;52.092;11.556;2024-02-15T11:53:02;15.40;99.90
5419;DHT22;2732;52.092;11.556;2024-02-15T11:58:07;15.40;99.90
5419;DHT22;2732;52.092;11.556;2024-02-15T12:03:09;15.30;99.90
5419;DHT22;2732;52.092;11.556;2024-02-15T12:08:28;15.10;99.90
5419;DHT22;2732;52.092;11.556;2024-02-15T12:13:51;15.00;99.90
5419;DHT22;2732;52.092;11.556;2024-02-15T12:19:11;14.90;99.90
5419;DHT22;2732;52.092;11.556;2024-02-15T12:24:11;14.80;99.90
5419;DHT22;2732;52.092;11.556;2024-02-15T12:29:17;14.60;99.90
5419;DHT22;2732;52.092;11.556;2024-02-15T12:34:20;14.50;99.90
5419;DHT22;2732;52.092;11.556;2024-02-15T12:39:25;14.50;99.90
5419;DHT22;2732;52.092;11.556;2024-02-15T12:44:25;14.60;99.90
5419;DHT22;2732;52.092;11.556;2024-02-15T12:49:29;14.50;99.90
5419;DHT22;2732;52.092;11.556;2024-02-15T12:54:31;14.50;99.90
5419;DHT22;2732;52.092;11.556;2024-02-15T12:59:31;14.40;99.90
5419;DHT22;2732;52.092;11.556;2024-02-15T13:04:32;14.20;99.90
5419;DHT22;2732;52.092;11.556;2024-02-15T13:09:32;14.20;99.90
5419;DHT22;2732;52.092;11.556;2024-02-15T13:14:33;14.10;99.90
5419;DHT22;2732;52.092;11.556;2024-02-15T13:19:35;14.10;99.90
5419;DHT22;2732;52.092;11.556;2024-02-15T13:24:36;14.10;99.90
5419;DHT22;2732;52.092;11.556;2024-02-15T13:29:39;14.20;99.90
5419;DHT22;2732;52.092;11.556;2024-02-15T13:34:41;14.20;99.90
5419;DHT22;2732;52.092;11.556;2024-02-15T13:39:42;14.20;99.90
5419;DHT22;2732;52.092;11.556;2024-02-15T13:44:46;14.20;99.90
5419;DHT22;2732;52.092;11.556;2024-02-15T13:49:48;14.20;99.90
5419;DHT22;2732;52.092;11.556;2024-02-15T13:54:49;14.20;99.90
5419;DHT22;2732;52.092;11.556;2024-02-15T13:59:50;14.20;99.90
5419;DHT22;2732;52.092;11.556;2024-02-15T14:04:50;14.20;99.90
5419;DHT22;2732;52.092;11.556;2024-02-15T14:09:51;14.10;99.90
5419;DHT22;2732;52.092;11.556;2024-02-15T14:14:51;14.10;99.90
5419;DHT22;2732;52.092;11.556;2024-02-15T14:19:52;14.00;99.90
5419;DHT22;2732;52.092;11.556;2024-02-15T14:24:52;14.00;99.90
5419;DHT22;2732;52.092;11.556;2024-02-15T14:29:54;14.00;99.90
5419;DHT22;2732;52.092;11.556;2024-02-15T14:35:13;14.00;99.90
5419;DHT22;2732;52.092;11.556;2024-02-15T14:40:14;14.00;99.90
5419;DHT22;2732;52.092;11.556;2024-02-15T14:45:15;14.00;99.90
5419;DHT22;2732;52.092;11.556;2024-02-15T14:50:15;14.00;99.90
5419;DHT22;2732;52.092;11.556;2024-02-15T14:55:16;14.00;99.90
5419;DHT22;2732;52.092;11.556;2024-02-15T15:00:17;14.00;99.90
5419;DHT22;2732;52.092;11.556;2024-02-15T15:05:19;13.90;99.90
5419;DHT22;2732;52.092;11.556;2024-02-15T15:10:38;13.90;99.90
5419;DHT22;2732;52.092;11.556;2024-02-15T15:16:01;13.90;99.90
5419;DHT22;2732;52.092;11.556;2024-02-15T15:21:07;13.80;99.90
5419;DHT22;2732;52.092;11.556;2024-02-15T15:26:08;13.80;99.90
5419;DHT22;2732;52.092;11.556;2024-02-15T15:31:11;13.70;99.90
5419;DHT22;2732;52.092;11.556;2024-02-15T15:36:12;13.70;99.90
5419;DHT22;2732;52.092;11.556;2024-02-15T15:41:12;13.60;99.90
5419;DHT22;2732;52.092;11.556;2024-02-15T15:46:14;13.60;99.90
5419;DHT22;2732;52.092;11.556;2024-02-15T15:51:15;13.50;99.90
5419;DHT22;2732;52.092;11.556;2024-02-15T15:56:16;13.50;99.90
5419;DHT22;2732;52.092;11.556;2024-02-15T16:01:17;13.40;99.90
5419;DHT22;2732;52.092;11.556;2024-02-15T16:06:19;13.40;99.90
5419;DHT22;2732;52.092;11.556;2024-02-15T16:11:19;13.30;99.90
5419;DHT22;2732;52.092;11.556;2024-02-15T16:16:20;13.30;99.90
5419;DHT22;2732;52.092;11.556;2024-02-15T16:21:22;13.20;99.90
5419;DHT22;2732;52.092;11.556;2024-02-15T16:26:22;13.20;99.90
5419;DHT22;2732;52.092;11.556;2024-02-15T16:31:24;13.10;99.90
5419;DHT22;2732;52.092;11.556;2024-02-15T16:36:24;13.10;99.90
5419;DHT22;2732;52.092;11.556;2024-02-15T16:41:25;13.10;99.90
5419;DHT22;2732;52.092;11.556;2024-02-15T16:46:29;13.00;99.90
5419;DHT22;2732;52.092;11.556;2024-02-15T16:51:31;13.00;99.90
5419;DHT22;2732;52.092;11.556;2024-02-15T16:56:32;13.00;99.90
5419;DHT22;2732;52.092;11.556;2024-02-15T17:01:37;12.90;99.90
5419;DHT22;2732;52.092;11.556;2024-02-15T17:06:38;12.90;99.90
5419;DHT22;2732;52.092;11.556;2024-02-15T17:11:39;12.80;99.90
5419;DHT22;2732;52.092;11.556;2024-02-15T17:16:41;12.80;99.90
5419;DHT22;2732;52.092;11.556;2024-02-15T17:21:45;12.70;99.90
5419;DHT22;2732;52.092;11.556;2024-02-15T17:26:46;12.70;99.90
5419;DHT22;2732;52.092;11.556;2024-02-15T17:31:49;12.60;99.90
5419;DHT22;2732;52.092;11.556;2024-02-15T17:36:51;12.50;99.90
5419;DHT22;2732;52.092;11.556;2024-02-15T17:41:51;12.50;99.90
5419;DHT22;2732;52.092;11.556;2024-02-15T17:46:53;12.40;99.90
5419;DHT22;2732;52.092;11.556;2024-02-15T17:51:54;12.40;99.90
5419;DHT22;2732;52.092;11.556;2024-02-15T17:56:55;12.30;99.90
5419;DHT22;2732;52.092;11.556;2024-02-15T18:01:56;12.30;99.90
5419;DHT22;2732;52.092;11.556;2024-02-15T18:06:56;12.20;99.90
5419;DHT22;2732;52.092;11.556;2024-02-15T18:11:57;12.10;99.90
5419;DHT22;2732;52.092;11.556;2024-02-15T18:16:58;12.10;99.90
5419;DHT22;2732;52.092;11.556;2024-02-15T18:21:58;12.10;99.90
5419;DHT22;2732;52.092;11.556;2024-02-15T18:27:01;12.10;99.90
5419;DHT22;2732;52.092;11.556;2024-02-15T18:32:01;12.10;99.90
5419;DHT22;2732;52.092;11.556;2024-02-15T18:37:02;12.00;99.90
5419;DHT22;2732;52.092;11.556;2024-02-15T18:42:03;12.00;99.90
5419;DHT22;2732;52.092;11.556;2024-02-15T18:47:06;12.00;99.90
5419;DHT22;2732;52.092;11.556;2024-02-15T18:52:06;11.90;99.90
5419;DHT22;2732;52.092;11.556;2024-02-15T18:57:07;11.90;99.90
5419;DHT22;2732;52.092;11.556;2024-02-15T19:02:09;11.90;99.90
5419;DHT22;2732;52.092;11.556;2024-02-15T19:07:12;11.80;99.90
5419;DHT22;2732;52.092;11.556;2024-02-15T19:12:13;11.80;99.90
5419;DHT22;2732;52.092;11.556;2024-02-15T19:17:14;11.80;99.90
5419;DHT22;2732;52.092;11.556;2024-02-15T19:22:14;11.70;99.90
5419;DHT22;2732;52.092;11.556;2024-02-15T19:27:15;11.70;99.90
5419;DHT22;2732;52.092;11.556;2024-02-15T19:38:09;11.60;99.90
5419;DHT22;2732;52.092;11.556;2024-02-15T19:43:09;11.60;99.90
5419;DHT22;2732;52.092;11.556;2024-02-15T19:48:11;11.50;99.90
5419;DHT22;2732;52.092;11.556;2024-02-15T19:53:13;11.50;99.90
5419;DHT22;2732;52.092;11.556;2024-02-15T19:58:14;11.40;99.90
5419;DHT22;2732;52.092;11.556;2024-02-15T20:03:15;11.40;99.90
5419;DHT22;2732;52.092;11.556;2024-02-15T20:08:15;11.40;99.90
5419;DHT22;2732;52.092;11.556;2024-02-15T20:13:16;11.30;99.90
5419;DHT22;2732;52.092;11.556;2024-02-15T20:18:16;11.30;99.90
5419;DHT22;2732;52.092;11.556;2024-02-15T20:23:17;11.20;99.90
5419;DHT22;2732;52.092;11.556;2024-02-15T20:28:17;11.20;99.90
5419;DHT22;2732;52.092;11.556;2024-02-15T20:33:19;11.20;99.90
5419;DHT22;2732;52.092;11.556;2024-02-15T20:38:23;11.10;99.90
5419;DHT22;2732;52.092;11.556;2024-02-15T20:43:28;11.00;99.90
5419;DHT22;2732;52.092;11.556;2024-02-15T20:48:29;11.00;99.90
5419;DHT22;2732;52.092;11.556;2024-02-15T20:53:31;11.00;99.90
5419;DHT22;2732;52.092;11.556;2024-02-15T20:58:31;10.90;99.90
5419;DHT22;2732;52.092;11.556;2024-02-15T21:03:32;10.90;99.90
5419;DHT22;2732;52.092;11.556;2024-02-15T21:08:32;10.90;99.90
5419;DHT22;2732;52.092;11.556;2024-02-15T21:13:33;10.80;99.90
5419;DHT22;2732;52.092;11.556;2024-02-15T21:18:34;10.80;99.90
5419;DHT22;2732;52.092;11.556;2024-02-15T21:23:35;10.70;99.90
5419;DHT22;2732;52.092;11.556;2024-02-15T21:28:36;10.70;99.90
5419;DHT22;2732;52.092;11.556;2024-02-15T21:33:45;10.60;99.90
5419;DHT22;2732;52.092;11.556;2024-02-15T21:38:46;10.60;99.90
5419;DHT22;2732;52.092;11.556;2024-02-15T21:43:46;10.50;99.90
5419;DHT22;2732;52.092;11.556;2024-02-15T21:48:47;10.50;99.90
5419;DHT22;2732;52.092;11.556;2024-02-15T21:53:50;10.50;99.90
5419;DHT22;2732;52.092;11.556;2024-02-15T21:58:51;10.40;99.90
5419;DHT22;2732;52.092;11.556;2024-02-15T22:03:51;10.40;99.90
5419;DHT22;2732;52.092;11.556;2024-02-15T22:08:52;10.40;99.90
5419;DHT22;2732;52.092;11.556;2024-02-15T22:13:53;10.30;99.90
5419;DHT22;2732;52.092;11.556;2024-02-15T22:18:54;10.20;99.90
5419;DHT22;2732;52.092;11.556;2024-02-15T22:23:54;10.20;99.90
5419;DHT22;2732;52.092;11.556;2024-02-15T22:28:55;10.20;99.90
5419;DHT22;2732;52.092;11.556;2024-02-15T22:33:56;10.10;99.90
5419;DHT22;2732;52.092;11.556;2024-02-15T22:38:57;10.10;99.90
5419;DHT22;2732;52.092;11.556;2024-02-15T22:43:57;10.10;99.90
5419;DHT22;2732;52.092;11.556;2024-02-15T22:48:59;10.10;99.90
5419;DHT22;2732;52.092;11.556;2024-02-15T22:53:59;10.00;99.90
5419;DHT22;2732;52.092;11.556;2024-02-15T22:59:01;10.00;99.90
5419;DHT22;2732;52.092;11.556;2024-02-15T23:04:02;10.00;99.90
5419;DHT22;2732;52.092;11.556;2024-02-15T23:09:03;9.90;99.90
5419;DHT22;2732;52.092;11.556;2024-02-15T23:14:03;9.90;99.90
5419;DHT22;2732;52.092;11.556;2024-02-15T23:19:06;9.90;99.90
5419;DHT22;2732;52.092;11.556;2024-02-15T23:24:07;9.90;99.90
5419;DHT22;2732;52.092;11.556;2024-02-15T23:29:07;9.90;99.90
5419;DHT22;2732;52.092;11.556;2024-02-15T23:34:10;9.90;99.90
5419;DHT22;2732;52.092;11.556;2024-02-15T23:39:11;9.80;99.90
5419;DHT22;2732;52.092;11.556;2024-02-15T23:44:46;9.80;99.90
5419;DHT22;2732;52.092;11.556;2024-02-15T23:49:47;9.80;99.90
5419;DHT22;2732;52.092;11.556;2024-02-15T23:54:49;9.80;99.90
5419;DHT22;2732;52.092;11.556;2024-02-15T23:59:49;9.70;99.90
